createdAt,value
2024-03-06T00:00:57.531Z,97.46
2024-03-06T00:01:57.688Z,95.43
2024-03-06T00:02:57.627Z,99.07
2024-03-06T00:03:57.657Z,95.71
2024-03-06T00:04:57.632Z,96.92
2024-03-06T00:05:57.571Z,97.78
2024-03-06T00:06:57.590Z,96.56
2024-03-06T00:07:57.578Z,96.30
2024-03-06T00:08:57.538Z,94.72
2024-03-06T00:09:57.520Z,98.18
2024-03-06T00:10:57.554Z,96.23
2024-03-06T00:11:57.671Z,96.59
2024-03-06T00:12:57.546Z,98.44
2024-03-06T00:13:57.523Z,98.19
2024-03-06T00:14:57.561Z,99.14
2024-03-06T00:15:57.553Z,98.18
2024-03-06T00:16:57.628Z,96.70
2024-03-06T00:17:57.559Z,95.18
2024-03-06T00:18:57.557Z,95.92
2024-03-06T00:19:57.610Z,98.47
2024-03-06T00:20:57.527Z,96.96
2024-03-06T00:21:57.547Z,99.88
2024-03-06T00:22:57.651Z,97.02
2024-03-06T00:23:57.556Z,96.39
2024-03-06T00:24:57.593Z,94.62
2024-03-06T00:25:57.632Z,95.79
2024-03-06T00:26:57.585Z,97.83
2024-03-06T00:27:57.560Z,95.81
2024-03-06T00:28:57.657Z,95.86
2024-03-06T00:29:57.634Z,91.55
2024-03-06T00:30:57.580Z,96.67
2024-03-06T00:31:57.643Z,96.03
2024-03-06T00:32:57.664Z,97.18
2024-03-06T00:33:57.569Z,97.08
2024-03-06T00:34:57.600Z,98.30
2024-03-06T00:35:57.593Z,99.73
2024-03-06T00:36:57.627Z,98.20
2024-03-06T00:37:57.621Z,95.98
2024-03-06T00:38:57.548Z,97.41
2024-03-06T00:39:57.558Z,96.16
2024-03-06T00:40:57.613Z,98.66
2024-03-06T00:41:57.622Z,98.42
2024-03-06T00:42:57.618Z,98.79
2024-03-06T00:43:58.180Z,98.01
2024-03-06T00:44:57.589Z,97.06
2024-03-06T00:45:57.631Z,96.70
2024-03-06T00:46:57.619Z,96.07
2024-03-06T00:47:57.585Z,96.26
2024-03-06T00:48:57.713Z,95.67
2024-03-06T00:49:57.705Z,98.15
2024-03-06T00:50:57.577Z,94.68
2024-03-06T00:51:57.683Z,92.23
2024-03-06T00:52:57.678Z,94.15
2024-03-06T00:53:57.598Z,93.15
2024-03-06T00:54:57.618Z,95.98
2024-03-06T00:55:57.620Z,99.30
2024-03-06T00:56:57.625Z,99.32
2024-03-06T00:57:57.711Z,99.16
2024-03-06T00:58:57.595Z,99.91
2024-03-06T00:59:57.625Z,98.49
2024-03-06T01:00:57.659Z,96.41
2024-03-06T01:01:57.773Z,97.46
2024-03-06T01:02:57.657Z,97.76
2024-03-06T01:03:57.613Z,97.84
2024-03-06T01:04:57.662Z,96.79
2024-03-06T01:05:57.625Z,97.21
2024-03-06T01:06:57.722Z,96.96
2024-03-06T01:07:57.658Z,97.99
2024-03-06T01:08:57.612Z,96.49
2024-03-06T01:09:57.607Z,99.00
2024-03-06T01:10:57.634Z,97.38
2024-03-06T01:11:57.707Z,97.87
2024-03-06T01:12:57.610Z,96.83
2024-03-06T01:13:57.768Z,98.21
2024-03-06T01:14:57.644Z,98.70
2024-03-06T01:15:57.733Z,99.05
2024-03-06T01:16:57.717Z,98.46
2024-03-06T01:17:57.763Z,96.75
2024-03-06T01:18:57.749Z,93.33
2024-03-06T01:19:57.772Z,95.19
2024-03-06T01:20:57.761Z,95.24
2024-03-06T01:21:57.787Z,96.39
2024-03-06T01:22:57.798Z,96.09
2024-03-06T01:23:57.792Z,97.86
2024-03-06T01:24:57.783Z,99.49
2024-03-06T01:25:57.830Z,97.41
2024-03-06T01:26:57.805Z,98.13
2024-03-06T01:27:57.853Z,96.57
2024-03-06T01:28:57.892Z,100.43
2024-03-06T01:29:57.882Z,101.58
2024-03-06T01:30:58.627Z,97.48
2024-03-06T01:31:57.963Z,96.48
2024-03-06T01:32:57.925Z,98.47
2024-03-06T01:33:57.952Z,98.45
2024-03-06T01:34:57.930Z,97.14
2024-03-06T01:35:57.959Z,97.75
2024-03-06T01:36:57.905Z,97.99
2024-03-06T01:37:57.992Z,96.76
2024-03-06T01:38:57.970Z,96.37
2024-03-06T01:39:58.007Z,98.10
2024-03-06T01:40:58.064Z,97.74
2024-03-06T01:41:58.611Z,96.28
2024-03-06T01:42:58.016Z,96.72
2024-03-06T01:43:58.074Z,96.12
2024-03-06T01:44:58.062Z,95.27
2024-03-06T01:45:58.071Z,98.71
2024-03-06T01:46:58.122Z,97.27
2024-03-06T01:47:58.151Z,96.03
2024-03-06T01:48:59.722Z,96.87
2024-03-06T01:49:58.137Z,96.90
2024-03-06T01:50:58.136Z,98.86
2024-03-06T01:51:58.110Z,97.39
2024-03-06T01:52:58.149Z,98.26
2024-03-06T01:53:58.191Z,101.21
2024-03-06T01:54:58.139Z,99.60
2024-03-06T01:55:58.147Z,101.57
2024-03-06T01:56:58.142Z,102.09
2024-03-06T01:57:58.154Z,101.39
2024-03-06T01:58:58.689Z,99.50
2024-03-06T01:59:58.129Z,96.57
2024-03-06T02:00:58.140Z,94.90
2024-03-06T02:01:58.193Z,100.22
2024-03-06T02:02:58.142Z,100.29
2024-03-06T02:03:58.153Z,99.55
2024-03-06T02:04:58.179Z,98.78
2024-03-06T02:05:58.136Z,99.55
2024-03-06T02:06:58.141Z,98.36
2024-03-06T02:07:58.224Z,98.22
2024-03-06T02:08:58.188Z,99.54
2024-03-06T02:09:58.128Z,100.11
2024-03-06T02:10:58.168Z,98.63
2024-03-06T02:11:58.164Z,99.50
2024-03-06T02:12:58.150Z,98.50
2024-03-06T02:13:58.252Z,97.99
2024-03-06T02:14:58.209Z,98.02
2024-03-06T02:15:58.185Z,100.53
2024-03-06T02:16:58.238Z,100.10
2024-03-06T02:17:58.222Z,99.31
2024-03-06T02:18:58.257Z,98.78
2024-03-06T02:19:58.272Z,99.88
2024-03-06T02:20:58.169Z,97.91
2024-03-06T02:21:58.171Z,98.94
2024-03-06T02:22:58.253Z,97.88
2024-03-06T02:23:58.198Z,97.47
2024-03-06T02:24:58.189Z,98.63
2024-03-06T02:25:58.251Z,98.20
2024-03-06T02:26:58.218Z,98.93
2024-03-06T02:27:58.155Z,98.77
2024-03-06T02:28:58.174Z,98.49
2024-03-06T02:29:58.175Z,99.15
2024-03-06T02:30:58.251Z,98.56
2024-03-06T02:31:58.267Z,99.36
2024-03-06T02:32:58.342Z,100.44
2024-03-06T02:33:58.195Z,97.58
2024-03-06T02:34:58.296Z,98.36
2024-03-06T02:35:58.212Z,99.26
2024-03-06T02:36:58.177Z,99.40
2024-03-06T02:37:58.229Z,99.05
2024-03-06T02:38:58.184Z,100.07
2024-03-06T02:39:58.179Z,98.61
2024-03-06T02:40:58.221Z,97.95
2024-03-06T02:41:58.201Z,100.12
2024-03-06T02:42:58.224Z,97.46
2024-03-06T02:43:58.255Z,96.66
2024-03-06T02:44:58.185Z,100.34
2024-03-06T02:45:58.177Z,100.72
2024-03-06T02:46:58.214Z,97.60
2024-03-06T02:47:58.289Z,99.07
2024-03-06T02:48:58.195Z,99.36
2024-03-06T02:49:58.226Z,99.93
2024-03-06T02:50:58.184Z,100.04
2024-03-06T02:51:58.210Z,98.71
2024-03-06T02:52:58.233Z,98.82
2024-03-06T02:53:58.196Z,95.40
2024-03-06T02:54:58.231Z,98.13
2024-03-06T02:55:58.244Z,99.54
2024-03-06T02:56:58.205Z,97.97
2024-03-06T02:57:58.204Z,98.51
2024-03-06T02:58:58.225Z,100.52
2024-03-06T02:59:58.149Z,99.47
2024-03-06T03:00:58.252Z,97.37
2024-03-06T03:01:58.294Z,97.27
2024-03-06T03:02:58.190Z,98.36
2024-03-06T03:03:58.208Z,96.69
2024-03-06T03:04:58.234Z,99.20
2024-03-06T03:05:58.167Z,99.25
2024-03-06T03:06:58.220Z,100.03
2024-03-06T03:07:58.264Z,99.62
2024-03-06T03:08:58.184Z,99.05
2024-03-06T03:09:58.243Z,97.64
2024-03-06T03:10:58.256Z,100.67
2024-03-06T03:11:58.203Z,99.30
2024-03-06T03:12:58.184Z,96.49
2024-03-06T03:13:58.274Z,96.88
2024-03-06T03:14:58.235Z,98.06
2024-03-06T03:15:58.261Z,98.44
2024-03-06T03:16:58.302Z,98.81
2024-03-06T03:17:58.220Z,96.43
2024-03-06T03:18:58.253Z,96.97
2024-03-06T03:19:58.254Z,97.62
2024-03-06T03:20:58.269Z,98.52
2024-03-06T03:21:58.198Z,99.13
2024-03-06T03:22:58.217Z,98.98
2024-03-06T03:23:58.212Z,97.23
2024-03-06T03:24:58.242Z,95.75
2024-03-06T03:25:58.289Z,98.33
2024-03-06T03:26:58.192Z,97.88
2024-03-06T03:27:58.209Z,99.07
2024-03-06T03:28:58.258Z,99.23
2024-03-06T03:29:58.237Z,97.65
2024-03-06T03:30:58.238Z,97.34
2024-03-06T03:31:58.311Z,99.24
2024-03-06T03:32:58.277Z,99.71
2024-03-06T03:33:58.361Z,99.37
2024-03-06T03:34:58.270Z,99.13
2024-03-06T03:35:58.262Z,100.69
2024-03-06T03:36:58.254Z,97.84
2024-03-06T03:37:58.249Z,97.92
2024-03-06T03:38:58.228Z,96.25
2024-03-06T03:39:58.246Z,98.69
2024-03-06T03:40:58.246Z,96.20
2024-03-06T03:41:58.249Z,97.51
2024-03-06T03:42:58.248Z,97.08
2024-03-06T03:43:58.274Z,100.16
2024-03-06T03:44:58.258Z,97.61
2024-03-06T03:45:58.236Z,97.78
2024-03-06T03:46:58.309Z,97.20
2024-03-06T03:47:58.267Z,97.45
2024-03-06T03:48:58.250Z,97.15
2024-03-06T03:50:03.718Z,97.45
2024-03-06T03:50:59.260Z,97.53
2024-03-06T03:51:58.233Z,98.08
2024-03-06T03:52:58.311Z,98.81
2024-03-06T03:53:58.284Z,99.28
2024-03-06T03:54:58.297Z,102.40
2024-03-06T03:55:58.302Z,101.41
2024-03-06T03:56:58.234Z,97.93
2024-03-06T03:57:58.294Z,98.46
2024-03-06T03:58:58.296Z,98.81
2024-03-06T03:59:58.314Z,98.81
2024-03-06T04:00:58.308Z,98.85
2024-03-06T04:01:58.306Z,98.69
2024-03-06T04:02:58.344Z,96.36
2024-03-06T04:03:58.283Z,100.93
2024-03-06T04:04:58.320Z,96.34
2024-03-06T04:05:58.286Z,96.69
2024-03-06T04:06:58.324Z,97.65
2024-03-06T04:07:58.313Z,98.75
2024-03-06T04:08:58.290Z,99.32
2024-03-06T04:09:58.289Z,98.53
2024-03-06T04:10:58.309Z,97.38
2024-03-06T04:11:58.441Z,97.49
2024-03-06T04:12:58.314Z,99.26
2024-03-06T04:13:58.294Z,97.51
2024-03-06T04:14:58.314Z,97.80
2024-03-06T04:15:58.375Z,98.20
2024-03-06T04:16:58.416Z,97.54
2024-03-06T04:17:58.497Z,98.25
2024-03-06T04:18:58.425Z,100.28
2024-03-06T04:19:58.475Z,98.68
2024-03-06T04:20:58.828Z,98.49
2024-03-06T04:21:58.499Z,99.68
2024-03-06T04:22:58.584Z,97.71
2024-03-06T04:23:58.587Z,98.12
2024-03-06T04:24:58.633Z,94.23
2024-03-06T04:25:58.742Z,96.01
2024-03-06T04:26:58.708Z,96.43
2024-03-06T04:27:58.744Z,98.32
2024-03-06T04:28:58.827Z,98.64
2024-03-06T04:29:58.827Z,98.56
2024-03-06T04:30:58.891Z,97.11
2024-03-06T04:31:58.958Z,97.18
2024-03-06T04:32:58.999Z,95.29
2024-03-06T04:34:06.242Z,50.00
2024-03-06T04:35:06.230Z,50.00
2024-03-06T04:36:06.251Z,50.00
2024-03-06T04:37:06.226Z,50.00
2024-03-06T04:38:06.259Z,50.00
2024-03-06T04:39:06.276Z,50.77
2024-03-06T04:40:06.202Z,53.12
2024-03-06T04:41:06.291Z,50.95
2024-03-06T04:42:06.280Z,50.59
2024-03-06T04:43:06.215Z,50.62
2024-03-06T04:44:06.272Z,50.68
2024-03-06T04:45:06.227Z,50.58
2024-03-06T04:46:06.232Z,52.84
2024-03-06T04:47:06.342Z,52.85
2024-03-06T04:48:06.295Z,51.50
2024-03-06T04:49:06.225Z,51.90
2024-03-06T04:50:06.310Z,50.79
2024-03-06T04:51:06.244Z,51.33
2024-03-06T04:52:06.273Z,50.59
2024-03-06T04:53:06.291Z,54.08
2024-03-06T04:54:06.240Z,52.57
2024-03-06T04:55:06.252Z,51.14
2024-03-06T04:56:06.247Z,52.19
2024-03-06T04:57:06.259Z,50.00
2024-03-06T04:58:06.278Z,52.70
2024-03-06T04:59:06.253Z,54.45
2024-03-06T05:00:06.293Z,51.96
2024-03-06T05:01:06.321Z,53.06
2024-03-06T05:02:06.394Z,53.14
2024-03-06T05:58:07.566Z,55.46
2024-03-06T05:59:06.761Z,73.37
2024-03-06T06:00:06.760Z,104.30
2024-03-06T06:01:06.784Z,141.78
2024-03-06T06:02:06.763Z,183.02
2024-03-06T06:03:06.730Z,195.81
2024-03-06T06:04:08.319Z,175.09
2024-03-06T06:05:21.557Z,159.89
2024-03-06T06:06:07.790Z,146.71
2024-03-06T06:07:06.754Z,135.14
2024-03-06T06:08:06.773Z,126.29
2024-03-06T06:09:06.765Z,116.58
2024-03-06T06:10:06.773Z,111.67
2024-03-06T06:11:06.846Z,104.28
2024-03-06T06:12:06.778Z,97.31
2024-03-06T06:13:06.800Z,90.46
2024-03-06T06:14:06.833Z,86.10
2024-03-06T06:15:06.812Z,84.61
2024-03-06T06:16:06.752Z,77.46
2024-03-06T06:17:06.924Z,73.30
2024-03-06T06:18:06.876Z,70.32
2024-03-06T06:19:06.940Z,65.32
2024-03-06T06:20:07.064Z,64.62
2024-03-06T06:21:07.038Z,63.91
2024-03-06T06:22:07.090Z,58.27
2024-03-06T06:23:07.207Z,57.21
2024-03-06T06:24:07.210Z,54.44
2024-03-06T06:25:07.272Z,51.81
2024-03-06T06:26:07.341Z,51.35
2024-03-06T06:27:07.341Z,51.30
2024-03-06T06:28:07.404Z,51.41
2024-03-06T06:29:07.468Z,53.22
2024-03-06T06:30:08.280Z,50.00
2024-03-06T06:31:07.556Z,50.00
2024-03-06T06:32:07.592Z,50.41
2024-03-06T06:33:07.732Z,53.08
2024-03-06T06:34:07.754Z,51.36
2024-03-06T06:35:07.804Z,51.18
2024-03-06T06:36:07.871Z,51.98
2024-03-06T06:37:07.908Z,54.25
2024-03-06T06:38:08.009Z,53.48
2024-03-06T06:39:08.038Z,51.80
2024-03-06T06:40:08.320Z,53.01
2024-03-06T06:41:08.246Z,51.87
2024-03-06T06:42:10.038Z,53.20
2024-03-06T06:43:08.221Z,50.96
2024-03-06T06:44:08.407Z,50.00
2024-03-06T06:45:08.456Z,50.00
2024-03-06T06:46:08.341Z,51.38
2024-03-06T06:47:08.581Z,51.70
2024-03-06T06:48:08.376Z,50.32
2024-03-06T06:49:08.418Z,51.06
2024-03-06T06:50:08.462Z,50.00
2024-03-06T06:51:08.590Z,51.76
2024-03-06T06:52:09.010Z,54.05
2024-03-06T06:53:08.879Z,52.94
2024-03-06T06:54:08.828Z,53.60
2024-03-06T06:55:08.805Z,55.39
2024-03-06T06:56:08.971Z,53.59
2024-03-06T06:57:08.956Z,56.40
2024-03-06T06:58:09.034Z,58.20
2024-03-06T06:59:09.062Z,59.11
2024-03-06T07:00:09.206Z,59.75
2024-03-06T07:01:09.091Z,60.47
2024-03-06T07:02:09.273Z,61.05
2024-03-06T07:03:09.113Z,59.84
2024-03-06T07:04:09.191Z,65.11
2024-03-06T07:05:09.192Z,62.36
2024-03-06T07:06:09.153Z,63.65
2024-03-06T07:07:09.443Z,65.18
2024-03-06T07:08:09.241Z,66.60
2024-03-06T07:09:09.951Z,67.25
2024-03-06T07:10:11.103Z,69.22
2024-03-06T07:11:09.374Z,69.76
2024-03-06T07:12:09.240Z,71.92
2024-03-06T07:13:09.646Z,72.35
2024-03-06T07:14:09.299Z,73.64
2024-03-06T07:15:09.414Z,72.58
2024-03-06T07:16:09.511Z,74.76
2024-03-06T07:17:09.346Z,76.06
2024-03-06T07:18:09.508Z,74.46
2024-03-06T07:19:09.391Z,78.40
2024-03-06T07:20:09.448Z,79.86
2024-03-06T07:21:09.397Z,81.97
2024-03-06T07:22:09.987Z,81.47
2024-03-06T07:23:09.460Z,84.07
2024-03-06T07:24:09.468Z,84.28
2024-03-06T07:25:09.645Z,84.28
2024-03-06T07:26:09.750Z,85.82
2024-03-06T07:27:09.646Z,87.37
2024-03-06T07:28:09.661Z,84.55
2024-03-06T07:29:09.810Z,87.67
2024-03-06T07:30:12.558Z,86.85
2024-03-06T07:31:10.121Z,86.94
2024-03-06T07:32:09.753Z,87.33
2024-03-06T07:33:10.879Z,88.08
2024-03-06T07:34:09.673Z,88.27
2024-03-06T07:35:09.752Z,90.26
2024-03-06T07:36:09.750Z,90.96
2024-03-06T07:37:10.481Z,92.05
2024-03-06T07:38:09.915Z,91.52
2024-03-06T07:39:09.689Z,93.24
2024-03-06T07:40:09.682Z,94.27
2024-03-06T07:41:10.495Z,94.02
2024-03-06T07:42:09.706Z,93.28
2024-03-06T07:43:11.953Z,93.66
2024-03-06T07:44:09.761Z,92.12
2024-03-06T07:45:09.728Z,92.68
2024-03-06T07:46:09.721Z,91.52
2024-03-06T07:47:09.836Z,91.61
2024-03-06T07:48:09.988Z,91.54
2024-03-06T07:49:09.813Z,93.21
2024-03-06T07:50:09.922Z,92.09
2024-03-06T07:51:09.934Z,90.94
2024-03-06T07:52:10.542Z,93.88
2024-03-06T07:53:10.563Z,96.03
2024-03-06T07:54:10.036Z,98.29
2024-03-06T07:55:10.065Z,100.78
2024-03-06T07:56:10.337Z,102.38
2024-03-06T07:57:11.105Z,98.06
2024-03-06T07:58:10.279Z,96.22
2024-03-06T07:59:10.277Z,95.06
2024-03-06T08:00:10.526Z,90.47
2024-03-06T08:01:10.471Z,90.09
2024-03-06T08:02:10.555Z,88.02
2024-03-06T08:03:10.512Z,83.96
2024-03-06T08:04:11.442Z,82.85
2024-03-06T08:05:10.755Z,80.65
2024-03-06T08:06:10.683Z,79.83
2024-03-06T08:07:11.137Z,77.34
2024-03-06T08:08:10.783Z,74.29
2024-03-06T08:09:13.577Z,69.67
2024-03-06T08:10:10.784Z,69.04
2024-03-06T08:11:11.132Z,65.79
2024-03-06T08:12:10.952Z,63.87
2024-03-06T08:13:10.919Z,64.78
2024-03-06T08:14:10.884Z,62.97
2024-03-06T08:15:10.930Z,61.53
2024-03-06T08:16:11.341Z,58.64
2024-03-06T08:17:12.705Z,59.14
2024-03-06T08:18:11.140Z,57.04
2024-03-06T08:19:10.870Z,54.55
2024-03-06T08:20:10.887Z,54.11
2024-03-06T08:21:11.449Z,55.87
2024-03-06T08:22:10.868Z,57.73
2024-03-06T08:23:12.707Z,52.62
2024-03-06T08:24:10.865Z,54.02
2024-03-06T08:25:10.867Z,53.33
2024-03-06T08:26:11.614Z,51.38
2024-03-06T08:27:10.865Z,50.52
2024-03-06T08:28:10.961Z,51.95
2024-03-06T08:29:12.024Z,50.65
2024-03-06T08:30:11.028Z,50.41
2024-03-06T08:31:11.457Z,50.00
2024-03-06T08:32:11.182Z,50.93
2024-03-06T08:33:11.460Z,50.34
2024-03-06T08:34:11.294Z,51.20
2024-03-06T08:35:11.291Z,50.75
2024-03-06T08:36:12.025Z,56.74
2024-03-06T08:37:11.493Z,60.08
2024-03-06T08:38:11.455Z,61.23
2024-03-06T08:39:12.123Z,62.25
2024-03-06T08:40:11.589Z,61.62
2024-03-06T08:41:13.916Z,56.74
2024-03-06T08:42:11.696Z,54.59
2024-03-06T08:43:11.828Z,52.05
2024-03-06T08:44:12.327Z,50.13
2024-03-06T08:45:11.681Z,49.98
2024-03-06T08:46:11.822Z,51.38
2024-03-06T08:47:12.249Z,52.11
2024-03-06T08:48:13.682Z,51.59
2024-03-06T08:49:11.868Z,51.15
2024-03-06T08:50:12.072Z,51.31
2024-03-06T08:51:12.154Z,50.00
2024-03-06T08:52:12.037Z,52.97
2024-03-06T08:53:13.139Z,53.15
2024-03-06T08:54:14.848Z,52.67
2024-03-06T08:55:13.121Z,56.30
2024-03-06T08:56:12.211Z,56.77
2024-03-06T08:57:12.252Z,57.21
2024-03-06T08:58:12.059Z,58.69
2024-03-06T08:59:12.093Z,57.94
2024-03-06T09:00:12.882Z,58.89
2024-03-06T09:01:12.167Z,59.85
2024-03-06T09:02:12.080Z,62.86
2024-03-06T09:03:12.101Z,63.25
2024-03-06T09:04:12.428Z,61.55
2024-03-06T09:05:13.241Z,62.92
2024-03-06T09:06:12.121Z,65.71
2024-03-06T09:07:12.066Z,67.81
2024-03-06T09:08:15.175Z,66.75
2024-03-06T09:09:13.105Z,66.85
2024-03-06T09:10:12.511Z,67.38
2024-03-06T09:11:14.055Z,68.59
2024-03-06T09:12:12.539Z,69.25
2024-03-06T09:13:12.517Z,72.57
2024-03-06T09:14:12.048Z,73.81
2024-03-06T09:15:12.137Z,74.12
2024-03-06T09:16:12.221Z,74.83
2024-03-06T09:17:14.009Z,76.19
2024-03-06T09:18:12.612Z,76.86
2024-03-06T09:19:13.960Z,79.13
2024-03-06T09:20:13.567Z,79.96
2024-03-06T09:21:18.972Z,80.07
2024-03-06T09:22:13.033Z,80.07
2024-03-06T09:23:12.536Z,80.69
2024-03-06T09:24:12.102Z,81.63
2024-03-06T09:25:12.488Z,83.25
2024-03-06T09:26:12.232Z,85.98
2024-03-06T09:27:12.529Z,86.25
2024-03-06T09:28:12.113Z,89.70
2024-03-06T09:29:12.226Z,90.62
2024-03-06T09:30:12.143Z,92.17
2024-03-06T09:31:12.086Z,93.08
2024-03-06T09:32:12.532Z,93.53
2024-03-06T09:33:12.325Z,92.19
2024-03-06T09:34:12.106Z,90.54
2024-03-06T09:35:12.137Z,89.50
2024-03-06T09:36:12.118Z,88.79
2024-03-06T09:37:12.513Z,82.67
2024-03-06T09:38:12.145Z,76.25
2024-03-06T09:39:12.121Z,72.83
2024-03-06T09:40:12.111Z,67.26
2024-03-06T09:41:13.116Z,62.55
2024-03-06T09:42:13.126Z,58.55
2024-03-06T09:43:20.619Z,56.01
2024-03-06T09:44:12.228Z,56.07
2024-03-06T09:45:15.020Z,56.21
2024-03-06T09:46:12.122Z,56.05
2024-03-06T09:48:24.403Z,50.00
2024-03-06T09:49:24.395Z,50.00
2024-03-06T09:50:26.935Z,50.00
2024-03-06T09:51:29.284Z,50.00
2024-03-06T09:52:24.052Z,50.00
2024-03-06T09:53:24.310Z,50.00
2024-03-06T09:54:25.647Z,50.00
2024-03-06T09:55:25.245Z,50.00
2024-03-06T09:56:24.130Z,50.00
2024-03-06T09:57:24.180Z,54.04
2024-03-06T09:58:25.674Z,52.61
2024-03-06T09:59:24.259Z,52.32
2024-03-06T10:00:24.197Z,53.39
2024-03-06T10:01:25.297Z,57.74
2024-03-06T10:02:26.252Z,54.90
2024-03-06T10:03:24.209Z,58.75
2024-03-06T10:04:24.224Z,58.95
2024-03-06T10:05:24.383Z,59.86
2024-03-06T10:06:25.272Z,59.23
2024-03-06T10:07:27.541Z,61.03
2024-03-06T10:08:25.655Z,64.10
2024-03-06T10:09:24.320Z,66.13
2024-03-06T10:10:25.390Z,66.40
2024-03-06T10:11:24.443Z,67.64
2024-03-06T10:12:25.381Z,67.62
2024-03-06T10:13:24.350Z,66.92
2024-03-06T10:14:26.549Z,70.10
2024-03-06T10:15:24.338Z,73.30
2024-03-06T10:16:24.454Z,76.97
2024-03-06T10:17:25.673Z,85.56
2024-03-06T10:18:24.348Z,89.72
2024-03-06T10:19:24.378Z,92.24
2024-03-06T10:20:26.774Z,92.69
2024-03-06T10:21:24.401Z,94.27
2024-03-06T10:22:24.676Z,95.30
2024-03-06T10:23:25.245Z,95.78
2024-03-06T10:24:24.401Z,101.46
2024-03-06T10:25:24.549Z,110.06
2024-03-06T10:26:24.747Z,111.29
2024-03-06T10:27:24.448Z,111.62
2024-03-06T10:28:24.783Z,111.55
2024-03-06T10:29:24.919Z,110.39
2024-03-06T10:30:25.288Z,110.56
2024-03-06T10:31:24.618Z,111.19
2024-03-06T10:32:24.409Z,107.28
2024-03-06T10:33:24.878Z,109.54
2024-03-06T10:34:24.695Z,109.28
2024-03-06T10:35:24.549Z,108.55
2024-03-06T10:36:24.462Z,110.05
2024-03-06T10:37:24.389Z,109.96
2024-03-06T10:38:24.410Z,111.58
2024-03-06T10:39:24.417Z,107.00
2024-03-06T10:40:24.386Z,105.12
2024-03-06T10:41:24.389Z,99.88
2024-03-06T10:42:24.369Z,98.17
2024-03-06T10:43:24.724Z,95.19
2024-03-06T10:44:24.512Z,92.60
2024-03-06T10:45:24.480Z,92.30
2024-03-06T10:46:25.188Z,90.14
2024-03-06T10:47:24.486Z,90.33
2024-03-06T10:48:24.449Z,91.46
2024-03-06T10:49:24.685Z,88.47
2024-03-06T10:50:25.354Z,86.71
2024-03-06T10:51:24.915Z,81.92
2024-03-06T10:52:24.424Z,84.18
2024-03-06T10:53:26.189Z,83.88
2024-03-06T10:54:24.746Z,86.85
2024-03-06T10:55:24.521Z,89.47
2024-03-06T10:56:24.549Z,92.13
2024-03-06T10:57:24.696Z,92.97
2024-03-06T10:58:24.632Z,94.61
2024-03-06T10:59:25.238Z,93.91
2024-03-06T11:00:24.682Z,94.36
2024-03-06T11:01:24.784Z,94.67
2024-03-06T11:02:24.955Z,92.90
2024-03-06T11:03:24.814Z,91.66
2024-03-06T11:04:24.837Z,89.28
2024-03-06T11:05:25.278Z,89.61
2024-03-06T11:06:25.277Z,87.75
2024-03-06T11:07:24.918Z,87.71
2024-03-06T11:08:25.063Z,86.26
2024-03-06T11:09:24.978Z,85.31
2024-03-06T11:10:25.305Z,86.55
2024-03-06T11:11:25.933Z,88.44
2024-03-06T11:12:25.243Z,90.71
2024-03-06T11:13:25.865Z,93.39
2024-03-06T11:14:25.341Z,90.95
2024-03-06T11:15:25.405Z,91.83
2024-03-06T11:17:42.226Z,50.00
2024-03-06T11:18:42.144Z,50.00
2024-03-06T11:19:42.820Z,50.00
2024-03-06T11:20:41.843Z,50.00
2024-03-06T11:21:42.083Z,50.00
2024-03-06T11:22:41.884Z,50.00
2024-03-06T11:23:42.013Z,50.00
2024-03-06T11:24:41.818Z,51.53
2024-03-06T11:25:42.117Z,50.00
2024-03-06T11:26:43.136Z,48.16
2024-03-06T11:27:41.935Z,44.11
2024-03-06T11:28:42.062Z,44.41
2024-03-06T11:29:41.846Z,40.49
2024-03-06T11:30:42.614Z,36.19
2024-03-06T11:31:41.951Z,49.67
2024-03-06T11:32:43.004Z,49.54
2024-03-06T11:33:42.513Z,50.00
2024-03-06T11:34:42.036Z,51.71
2024-03-06T11:35:42.113Z,50.42
2024-03-06T11:36:42.118Z,50.00
2024-03-06T11:37:42.121Z,50.00
2024-03-06T11:38:42.364Z,52.16
2024-03-06T11:39:42.701Z,50.93
2024-03-06T11:40:42.236Z,50.60
2024-03-06T11:41:42.334Z,51.13
2024-03-06T11:42:42.468Z,53.83
2024-03-06T11:43:42.322Z,50.01
2024-03-06T11:44:42.337Z,51.96
2024-03-06T11:45:42.483Z,52.75
2024-03-06T11:46:42.474Z,52.29
2024-03-06T11:47:43.524Z,53.52
2024-03-06T11:48:43.125Z,55.04
2024-03-06T11:49:42.616Z,54.22
2024-03-06T11:50:42.732Z,56.89
2024-03-06T11:51:42.907Z,55.11
2024-03-06T11:52:43.042Z,58.18
2024-03-06T11:53:42.869Z,58.10
2024-03-06T11:54:43.047Z,58.40
2024-03-06T11:55:42.965Z,62.61
2024-03-06T11:56:43.197Z,61.30
2024-03-06T11:57:43.500Z,63.83
2024-03-06T11:58:43.944Z,64.55
2024-03-06T11:59:43.291Z,61.70
2024-03-06T12:00:43.231Z,64.42
2024-03-06T12:01:43.206Z,66.71
2024-03-06T12:02:43.256Z,68.62
2024-03-06T12:03:43.297Z,69.60
2024-03-06T12:04:43.643Z,69.52
2024-03-06T12:05:43.312Z,67.74
2024-03-06T12:06:43.699Z,68.11
2024-03-06T12:07:43.308Z,71.77
2024-03-06T12:08:43.745Z,73.77
2024-03-06T12:09:44.298Z,74.93
2024-03-06T12:10:43.452Z,72.61
2024-03-06T12:11:43.693Z,74.07
2024-03-06T12:12:43.485Z,73.49
2024-03-06T12:13:43.681Z,72.58
2024-03-06T12:14:45.454Z,75.07
2024-03-06T12:16:06.206Z,75.18
2024-03-06T12:16:43.500Z,75.39
2024-03-06T12:17:43.576Z,75.89
2024-03-06T12:18:44.022Z,77.48
2024-03-06T12:19:43.540Z,79.52
2024-03-06T12:20:43.615Z,82.30
2024-03-06T12:21:43.928Z,84.86
2024-03-06T12:22:43.779Z,86.88
2024-03-06T12:23:44.492Z,85.55
2024-03-06T12:24:43.694Z,86.70
2024-03-06T12:25:51.699Z,89.24
2024-03-06T12:26:44.569Z,89.26
2024-03-06T12:27:43.536Z,89.72
2024-03-06T12:28:43.563Z,90.06
2024-03-06T12:29:44.429Z,91.26
2024-03-06T12:30:43.560Z,92.37
2024-03-06T12:31:44.076Z,93.75
2024-03-06T12:32:43.657Z,94.25
2024-03-06T12:33:43.570Z,94.21
2024-03-06T12:34:43.512Z,91.76
2024-03-06T12:35:43.599Z,90.31
2024-03-06T12:36:43.536Z,89.27
2024-03-06T12:37:43.545Z,91.37
2024-03-06T12:38:43.632Z,87.27
2024-03-06T12:39:44.097Z,86.98
2024-03-06T12:40:43.524Z,86.48
2024-03-06T12:41:43.564Z,84.65
2024-03-06T12:42:43.556Z,83.26
2024-03-06T12:43:43.588Z,80.85
2024-03-06T12:44:43.663Z,80.48
2024-03-06T12:45:43.724Z,81.79
2024-03-06T12:46:43.816Z,78.25
2024-03-06T12:47:43.895Z,78.46
2024-03-06T12:48:43.837Z,76.38
2024-03-06T12:49:43.786Z,77.99
2024-03-06T12:50:43.945Z,73.73
2024-03-06T12:51:44.019Z,73.63
2024-03-06T12:52:44.072Z,73.25
2024-03-06T12:53:44.051Z,74.08
2024-03-06T12:54:44.043Z,76.10
2024-03-06T12:55:44.067Z,73.51
2024-03-06T12:56:44.149Z,74.23
2024-03-06T12:57:44.151Z,72.41
2024-03-06T12:58:44.258Z,71.39
2024-03-06T12:59:44.390Z,70.43
2024-03-06T13:00:44.318Z,71.41
2024-03-06T13:01:44.393Z,69.46
2024-03-06T13:02:44.532Z,68.62
2024-03-06T13:03:44.529Z,68.71
2024-03-06T13:04:44.498Z,67.44
2024-03-06T13:05:44.615Z,67.61
2024-03-06T13:06:44.617Z,64.49
2024-03-06T13:07:44.769Z,64.76
2024-03-06T13:08:44.782Z,63.77
2024-03-06T13:09:44.734Z,65.44
2024-03-06T13:10:44.846Z,64.80
2024-03-06T13:11:45.083Z,63.18
2024-03-06T13:12:44.865Z,64.50
2024-03-06T13:13:44.925Z,60.84
2024-03-06T13:14:45.061Z,63.37
2024-03-06T13:15:44.998Z,61.34
2024-03-06T13:16:45.118Z,60.11
2024-03-06T13:17:45.181Z,58.19
2024-03-06T13:18:45.193Z,58.37
2024-03-06T13:19:45.173Z,58.09
2024-03-06T13:20:45.430Z,58.79
2024-03-06T13:21:45.319Z,59.42
2024-03-06T13:22:45.422Z,58.00
2024-03-06T13:23:45.461Z,60.16
2024-03-06T13:24:48.164Z,61.56
2024-03-06T13:25:45.398Z,60.54
2024-03-06T13:26:45.451Z,58.92
2024-03-06T13:27:45.417Z,58.31
2024-03-06T13:28:45.389Z,60.20
2024-03-06T13:29:45.441Z,60.87
2024-03-06T13:30:45.396Z,59.13
2024-03-06T13:31:45.399Z,61.67
2024-03-06T13:32:45.511Z,62.44
2024-03-06T13:33:45.464Z,62.36
2024-03-06T13:34:45.423Z,62.46
2024-03-06T13:35:45.580Z,61.34
2024-03-06T13:36:45.522Z,62.02
2024-03-06T13:37:45.429Z,60.26
2024-03-06T13:38:45.539Z,59.95
2024-03-06T13:39:45.432Z,61.38
2024-03-06T13:40:45.441Z,62.92
2024-03-06T13:41:45.538Z,63.28
2024-03-06T13:42:45.488Z,62.09
2024-03-06T13:43:45.577Z,58.93
2024-03-06T13:44:45.629Z,61.47
2024-03-06T13:45:45.643Z,61.30
2024-03-06T13:46:45.757Z,61.76
2024-03-06T13:47:45.908Z,62.05
2024-03-06T13:48:45.759Z,64.13